createdAt,value
2017-10-31T00:00:24.865Z,9.80
2017-10-31T00:05:28.069Z,9.93
2017-10-31T00:10:31.272Z,11.50
2017-10-31T00:15:34.454Z,10.93
2017-10-31T00:20:38.418Z,11.33
2017-10-31T00:25:41.598Z,12.00
2017-10-31T00:30:44.786Z,9.83
2017-10-31T00:35:48.021Z,12.80
2017-10-31T00:40:51.554Z,10.80
2017-10-31T00:45:54.744Z,10.60
2017-10-31T00:50:58.847Z,10.03
2017-10-31T00:56:02.023Z,9.33
2017-10-31T01:01:05.995Z,10.93
2017-10-31T01:06:09.177Z,11.20
2017-10-31T01:11:12.433Z,9.50
2017-10-31T01:16:15.677Z,10.83
2017-10-31T01:21:18.870Z,10.67
2017-10-31T01:26:22.113Z,10.13
2017-10-31T01:31:25.332Z,9.55
2017-10-31T01:36:28.525Z,9.07
2017-10-31T01:41:31.715Z,9.80
2017-10-31T01:46:35.674Z,10.30
2017-10-31T01:51:38.874Z,9.00
2017-10-31T01:56:42.088Z,8.60
2017-10-31T02:01:45.544Z,9.73
2017-10-31T02:06:48.745Z,8.70
2017-10-31T02:11:52.002Z,9.83
2017-10-31T02:16:55.191Z,10.37
2017-10-31T02:21:58.335Z,10.20
2017-10-31T02:27:01.511Z,9.10
2017-10-31T02:32:04.671Z,10.10
2017-10-31T02:37:07.888Z,9.90
2017-10-31T02:42:11.060Z,10.10
2017-10-31T02:47:14.239Z,9.20
2017-10-31T02:52:17.414Z,9.83
2017-10-31T02:57:21.333Z,9.80
2017-10-31T03:02:25.314Z,9.50
2017-10-31T03:07:28.478Z,9.90
2017-10-31T03:12:32.411Z,8.93
2017-10-31T03:17:35.606Z,9.73
2017-10-31T03:22:39.759Z,9.93
2017-10-31T03:27:43.023Z,8.43
2017-10-31T03:32:46.211Z,10.73
2017-10-31T03:37:49.514Z,9.77
2017-10-31T03:42:52.692Z,9.63
2017-10-31T03:47:55.858Z,10.93
2017-10-31T03:52:59.803Z,9.73
2017-10-31T03:58:02.977Z,9.37
2017-10-31T04:03:06.181Z,12.17
2017-10-31T04:08:09.384Z,9.63
2017-10-31T04:13:12.546Z,11.27
2017-10-31T04:18:15.719Z,14.10
2017-10-31T04:23:19.638Z,17.20
2017-10-31T04:28:23.646Z,18.37
2017-10-31T04:33:26.822Z,16.60
2017-10-31T04:38:29.986Z,16.40
2017-10-31T04:43:33.178Z,14.67
2017-10-31T04:48:37.134Z,12.77
2017-10-31T04:53:40.330Z,13.23
2017-10-31T04:58:43.589Z,12.20
2017-10-31T05:03:46.763Z,12.50
2017-10-31T05:08:49.961Z,12.50
2017-10-31T05:13:53.156Z,11.93
2017-10-31T05:18:56.354Z,10.53
2017-10-31T05:23:59.544Z,11.05
2017-10-31T05:29:02.737Z,12.43
2017-10-31T05:34:05.926Z,10.50
2017-10-31T05:39:09.205Z,11.17
2017-10-31T05:44:12.384Z,9.90
2017-10-31T05:49:16.332Z,10.33
2017-10-31T05:54:19.522Z,11.43
2017-10-31T05:59:22.706Z,10.50
2017-10-31T06:04:25.889Z,11.30
2017-10-31T06:09:29.117Z,13.23
2017-10-31T06:14:33.238Z,14.40
2017-10-31T06:19:36.431Z,11.57
2017-10-31T06:40:40.693Z,12.30
2017-10-31T06:45:44.731Z,11.40
2017-10-31T06:50:47.916Z,13.80
2017-10-31T06:55:51.877Z,12.30
2017-10-31T07:00:55.083Z,14.30
2017-10-31T07:05:58.267Z,12.07
2017-10-31T07:11:01.478Z,13.68
2017-10-31T07:16:05.539Z,11.20
2017-10-31T07:21:08.740Z,11.40
2017-10-31T07:26:11.934Z,12.53
2017-10-31T07:31:15.193Z,12.60
2017-10-31T07:36:18.374Z,11.70
2017-10-31T07:41:21.574Z,10.50
2017-10-31T07:46:24.760Z,11.20
2017-10-31T07:51:27.966Z,10.77
2017-10-31T07:56:31.150Z,12.13
2017-10-31T08:01:35.097Z,12.80
2017-10-31T08:06:38.302Z,12.57
2017-10-31T08:11:41.499Z,11.40
2017-10-31T08:16:44.727Z,12.70
2017-10-31T08:21:47.995Z,11.27
2017-10-31T08:26:51.938Z,12.80
2017-10-31T08:31:55.158Z,12.70
2017-10-31T08:36:58.383Z,11.27
2017-10-31T08:42:01.617Z,12.60
2017-10-31T08:47:04.795Z,11.40
2017-10-31T08:52:07.964Z,11.03
2017-10-31T08:57:12.044Z,12.13
2017-10-31T09:02:15.344Z,13.10
2017-10-31T09:07:18.599Z,13.70
2017-10-31T09:12:21.859Z,12.70
2017-10-31T09:17:25.078Z,13.00
2017-10-31T09:22:28.273Z,12.23
2017-10-31T09:27:31.644Z,13.67
2017-10-31T09:32:35.631Z,12.90
2017-10-31T09:37:38.821Z,13.80
2017-10-31T09:42:42.041Z,14.10
2017-10-31T09:47:45.239Z,13.20
2017-10-31T09:52:48.498Z,12.77
2017-10-31T09:57:51.719Z,13.77
2017-10-31T10:02:54.936Z,14.40
2017-10-31T10:07:58.144Z,13.27
2017-10-31T10:13:01.331Z,14.37
2017-10-31T10:18:04.498Z,12.13
2017-10-31T10:23:07.693Z,11.03
2017-10-31T10:28:10.885Z,12.77
2017-10-31T10:33:14.174Z,13.20
2017-10-31T10:38:17.362Z,13.13
2017-10-31T10:43:20.558Z,11.30
2017-10-31T10:48:23.888Z,13.07
2017-10-31T10:53:27.041Z,11.90
2017-10-31T10:58:30.234Z,12.00
2017-10-31T11:03:33.453Z,12.40
2017-10-31T11:08:36.659Z,11.27
2017-10-31T11:13:39.880Z,10.50
2017-10-31T11:18:43.833Z,9.77
2017-10-31T11:23:47.078Z,8.60
2017-10-31T11:28:50.280Z,9.37
2017-10-31T11:33:53.486Z,8.90
2017-10-31T11:38:56.711Z,8.67
2017-10-31T11:43:59.929Z,9.13
2017-10-31T11:49:03.941Z,10.10
2017-10-31T11:54:07.135Z,8.65
2017-10-31T11:59:10.397Z,8.30
2017-10-31T12:04:13.630Z,10.53
2017-10-31T12:09:16.879Z,7.53
2017-10-31T12:14:20.152Z,5.50
2017-10-31T12:19:23.373Z,6.73
2017-10-31T12:24:26.551Z,6.87
2017-10-31T12:29:29.751Z,6.17
2017-10-31T12:34:32.938Z,4.73
2017-10-31T12:39:36.474Z,5.73
2017-10-31T12:44:39.814Z,4.33
2017-10-31T12:49:43.017Z,5.00
2017-10-31T12:54:46.222Z,5.07
2017-10-31T12:59:49.439Z,4.93
2017-10-31T13:04:52.774Z,4.60
2017-10-31T13:09:56.133Z,4.50
2017-10-31T13:14:59.305Z,4.30
2017-10-31T13:20:02.487Z,4.30
2017-10-31T13:25:06.458Z,4.00
2017-10-31T13:30:10.698Z,3.80
2017-10-31T13:35:14.954Z,3.53
2017-10-31T13:40:19.365Z,3.63
2017-10-31T13:45:22.537Z,3.20
2017-10-31T13:50:25.798Z,4.40
2017-10-31T13:55:29.025Z,3.30
2017-10-31T14:00:33.238Z,3.23
2017-10-31T14:05:37.495Z,3.07
2017-10-31T14:10:41.823Z,3.17
2017-10-31T14:15:45.786Z,4.00
2017-10-31T14:20:49.911Z,4.33
2017-10-31T14:25:53.112Z,3.30
2017-10-31T14:30:56.315Z,3.33
2017-10-31T14:35:59.534Z,3.50
2017-10-31T14:41:02.754Z,3.37
2017-10-31T14:46:05.932Z,3.20
2017-10-31T14:51:09.203Z,3.47
2017-10-31T14:56:12.390Z,7.53
2017-10-31T15:01:15.592Z,4.63
2017-10-31T15:06:18.817Z,3.40
2017-10-31T15:11:22.032Z,4.80
2017-10-31T15:16:25.251Z,9.20
2017-10-31T15:21:28.442Z,3.43
2017-10-31T15:26:31.673Z,5.50
2017-10-31T15:31:35.668Z,3.40
2017-10-31T15:36:40.168Z,3.90
2017-10-31T15:41:44.492Z,4.10
2017-10-31T15:46:47.723Z,4.00
2017-10-31T15:51:50.952Z,3.73
2017-10-31T15:56:54.123Z,4.43
2017-10-31T16:01:57.333Z,3.90
2017-10-31T16:07:00.506Z,4.27
2017-10-31T16:12:03.731Z,5.12
2017-10-31T16:17:06.955Z,6.17
2017-10-31T16:22:10.369Z,6.13
2017-10-31T16:27:13.592Z,6.57
2017-10-31T16:32:16.784Z,7.50
2017-10-31T16:37:20.148Z,6.57
2017-10-31T16:42:24.343Z,7.67
2017-10-31T16:47:27.579Z,6.73
2017-10-31T16:52:31.532Z,7.23
2017-10-31T16:57:34.736Z,7.27
2017-10-31T17:02:37.975Z,6.13
2017-10-31T17:07:41.253Z,6.53
2017-10-31T17:12:44.474Z,7.70
2017-10-31T17:17:47.659Z,7.80
2017-10-31T17:22:50.981Z,8.00
2017-10-31T17:27:54.141Z,7.07
2017-10-31T17:32:58.033Z,7.27
2017-10-31T17:38:01.333Z,7.73
2017-10-31T17:43:04.519Z,10.00
2017-10-31T17:48:07.705Z,7.00
2017-10-31T17:53:11.664Z,10.63
2017-10-31T17:58:15.035Z,8.83
2017-10-31T18:03:19.134Z,9.20
2017-10-31T18:08:22.447Z,8.67
2017-10-31T18:13:25.689Z,9.97
2017-10-31T18:18:28.895Z,11.47
2017-10-31T18:23:32.838Z,15.47
2017-10-31T18:28:36.012Z,11.30
2017-10-31T18:33:39.955Z,10.80
2017-10-31T18:38:43.185Z,7.50
2017-10-31T18:43:46.347Z,9.33
2017-10-31T18:48:50.297Z,10.47
2017-10-31T18:53:53.464Z,8.97
2017-10-31T18:58:57.388Z,8.50
2017-10-31T19:04:01.342Z,10.77
2017-10-31T19:09:04.569Z,9.37
2017-10-31T19:14:07.766Z,10.40
2017-10-31T19:19:11.021Z,10.20
2017-10-31T19:24:14.250Z,8.40
2017-10-31T19:29:18.236Z,7.70
2017-10-31T19:34:21.494Z,9.87
2017-10-31T19:39:25.897Z,9.07
2017-10-31T19:44:29.902Z,20.03
2017-10-31T19:49:33.316Z,10.20
2017-10-31T19:54:36.572Z,10.87
2017-10-31T19:59:40.597Z,9.73
2017-10-31T20:04:45.744Z,8.60
2017-10-31T20:09:49.142Z,9.63
2017-10-31T20:14:53.148Z,9.17
2017-10-31T20:19:56.424Z,9.30
2017-10-31T20:24:59.621Z,8.30
2017-10-31T20:30:02.822Z,9.17
2017-10-31T20:35:06.393Z,8.13
2017-10-31T20:40:09.740Z,8.33
2017-10-31T20:45:13.625Z,8.53
2017-10-31T20:50:16.826Z,10.10
2017-10-31T20:55:20.014Z,9.50
2017-10-31T21:00:23.333Z,8.80
2017-10-31T21:05:26.523Z,9.77
2017-10-31T21:10:29.748Z,8.93
2017-10-31T21:15:32.940Z,10.10
2017-10-31T21:20:36.149Z,10.97
2017-10-31T21:25:39.387Z,10.07
2017-10-31T21:30:42.690Z,9.70
2017-10-31T21:35:45.891Z,9.03
2017-10-31T21:40:49.051Z,10.60
2017-10-31T21:45:52.299Z,10.10
2017-10-31T21:50:57.335Z,9.87
2017-10-31T21:56:00.782Z,10.03
2017-10-31T22:01:04.754Z,9.93
2017-10-31T22:06:07.943Z,9.70
2017-10-31T22:11:11.458Z,9.53
2017-10-31T22:16:14.682Z,10.63
2017-10-31T22:21:17.835Z,10.23
2017-10-31T22:26:21.830Z,10.00
2017-10-31T22:31:25.016Z,10.70
2017-10-31T22:36:28.171Z,9.67
2017-10-31T22:41:31.407Z,9.50
2017-10-31T22:46:34.615Z,9.90
2017-10-31T22:51:37.884Z,9.73
2017-10-31T22:56:41.106Z,9.77
2017-10-31T23:01:45.053Z,9.43
2017-10-31T23:06:48.206Z,9.87
2017-10-31T23:11:51.457Z,9.23
2017-10-31T23:16:55.424Z,9.10
2017-10-31T23:21:58.615Z,9.70
2017-10-31T23:27:01.807Z,7.83
2017-10-31T23:32:04.992Z,8.93
2017-10-31T23:37:09.064Z,9.67
2017-10-31T23:42:12.283Z,8.97
2017-10-31T23:47:16.280Z,8.73
2017-10-31T23:52:19.470Z,9.30
2017-10-31T23:57:22.631Z,8.33
